Time,TemperatureF,DewpointF,PressureIn,WindDirection,WindDirectionDegrees,WindSpeedMPH,WindSpeedGustMPH,Humidity,HourlyPrecipIn,Conditions,Clouds,dailyrainin,SoftwareType,DateUTC
2013-02-10 00:14:00,61.3,60.0,29.70,ESE,115,6.0,14.0,95,0.00,,,0.00,weatherlink.com 1.10,2013-02-10 07:14:00,
2013-02-10 00:29:00,61.6,60.0,29.67,East,98,14.0,19.0,95,0.00,,,0.00,weatherlink.com 1.10,2013-02-10 07:29:00,
2013-02-10 00:44:00,62.0,61.0,29.67,ESE,119,10.0,17.0,95,0.00,,,0.00,weatherlink.com 1.10,2013-02-10 07:44:00,
2013-02-10 00:59:00,62.5,61.0,29.68,SSE,153,8.0,20.0,95,0.00,,,0.00,weatherlink.com 1.10,2013-02-10 07:59:00,
2013-02-10 01:14:00,63.1,62.0,29.67,SE,130,11.0,18.0,95,0.00,,,0.00,weatherlink.com 1.10,2013-02-10 08:14:00,
2013-02-10 01:29:00,63.9,63.0,29.65,SE,126,11.0,22.0,95,0.00,,,0.00,weatherlink.com 1.10,2013-02-10 08:29:00,
2013-02-10 01:45:00,64.5,63.0,29.65,SE,140,6.0,19.0,94,0.00,,,0.00,weatherlink.com 1.10,2013-02-10 08:45:00,
2013-02-10 02:00:00,64.9,63.0,29.64,SE,125,12.0,19.0,93,0.00,,,0.00,weatherlink.com 1.10,2013-02-10 09:00:00,
2013-02-10 02:15:00,65.2,63.0,29.65,ESE,115,13.0,17.0,93,0.00,,,0.00,weatherlink.com 1.10,2013-02-10 09:15:00,
2013-02-10 02:30:00,65.8,64.0,29.64,SE,132,8.0,24.0,92,0.00,,,0.00,weatherlink.com 1.10,2013-02-10 09:30:00,
2013-02-10 02:45:00,66.0,63.0,29.65,SE,139,5.0,15.0,91,0.00,,,0.00,weatherlink.com 1.10,2013-02-10 09:45:00,
2013-02-10 03:00:00,66.2,64.0,29.67,SSW,193,6.0,14.0,91,0.00,,,0.00,weatherlink.com 1.10,2013-02-10 10:00:00,
2013-02-10 03:15:00,60.6,58.0,29.73,West,264,9.0,41.0,90,0.31,,,0.31,weatherlink.com 1.10,2013-02-10 10:15:00,
2013-02-10 03:30:00,58.6,57.0,29.73,SW,229,8.0,12.0,95,0.47,,,0.47,weatherlink.com 1.10,2013-02-10 10:30:00,
2013-02-10 03:45:00,58.2,57.0,29.71,SW,221,0.0,9.0,95,0.48,,,0.48,weatherlink.com 1.10,2013-02-10 10:45:00,
2013-02-10 04:00:00,58.0,57.0,29.71,SSW,197,3.0,9.0,96,0.48,,,0.48,weatherlink.com 1.10,2013-02-10 11:00:00,
2013-02-10 04:15:00,58.1,57.0,29.74,SSW,206,5.0,7.0,96,0.21,,,0.53,weatherlink.com 1.10,2013-02-10 11:15:00,
2013-02-10 04:30:00,58.1,57.0,29.74,SW,219,7.0,10.0,96,0.12,,,0.59,weatherlink.com 1.10,2013-02-10 11:30:00,
2013-02-10 04:45:00,57.9,57.0,29.74,SW,221,8.0,8.0,96,0.16,,,0.64,weatherlink.com 1.10,2013-02-10 11:45:00,
2013-02-10 05:00:00,57.5,56.0,29.74,SW,229,4.0,9.0,96,0.16,,,0.64,weatherlink.com 1.10,2013-02-10 12:00:00,
2013-02-10 05:15:00,57.1,56.0,29.74,WSW,249,6.0,7.0,96,0.13,,,0.66,weatherlink.com 1.10,2013-02-10 12:15:00,
2013-02-10 05:30:00,56.7,56.0,29.73,West,269,1.0,5.0,96,0.07,,,0.66,weatherlink.com 1.10,2013-02-10 12:30:00,
2013-02-10 05:45:00,56.5,55.0,29.75,WSW,239,3.0,4.0,96,0.02,,,0.66,weatherlink.com 1.10,2013-02-10 12:45:00,
2013-02-10 06:00:00,56.3,55.0,29.76,WSW,251,1.0,3.0,96,0.02,,,0.66,weatherlink.com 1.10,2013-02-10 13:00:00,
2013-02-10 06:15:00,55.6,54.0,29.76,West,270,4.0,10.0,95,0.00,,,0.66,weatherlink.com 1.10,2013-02-10 13:15:00,
2013-02-10 06:30:00,53.2,52.0,29.76,NW,309,3.0,8.0,94,0.00,,,0.66,weatherlink.com 1.10,2013-02-10 13:30:00,
2013-02-10 06:45:00,52.5,51.0,29.79,WSW,246,2.0,6.0,94,0.00,,,0.66,weatherlink.com 1.10,2013-02-10 13:45:00,
2013-02-10 07:00:00,52.6,51.0,29.78,WSW,246,2.0,3.0,94,0.00,,,0.66,weatherlink.com 1.10,2013-02-10 14:00:00,
2013-02-10 07:15:00,53.4,52.0,29.79,West,262,1.0,4.0,93,0.00,,,0.66,weatherlink.com 1.10,2013-02-10 14:15:00,
2013-02-10 07:30:00,53.5,51.0,29.79,West,280,2.0,6.0,91,0.00,,,0.66,weatherlink.com 1.10,2013-02-10 14:30:00,
2013-02-10 07:45:00,54.7,48.0,29.80,WNW,289,5.0,7.0,79,0.00,,,0.66,weatherlink.com 1.10,2013-02-10 14:45:00,
2013-02-10 08:00:00,56.5,47.0,29.82,West,260,5.0,9.0,70,0.00,,,0.66,weatherlink.com 1.10,2013-02-10 15:00:00,
2013-02-10 08:16:00,57.4,43.0,29.81,West,267,3.0,9.0,59,0.00,,,0.66,weatherlink.com 1.10,2013-02-10 15:16:00,
2013-02-10 08:31:00,58.3,42.0,29.82,West,260,3.0,7.0,55,0.00,,,0.66,weatherlink.com 1.10,2013-02-10 15:31:00,
2013-02-10 08:46:00,59.1,41.0,29.83,WSW,242,3.0,9.0,51,0.00,,,0.66,weatherlink.com 1.10,2013-02-10 15:46:00,
2013-02-10 09:01:00,59.6,39.0,29.84,West,273,4.0,10.0,46,0.00,,,0.66,weatherlink.com 1.10,2013-02-10 16:01:00,
2013-02-10 09:16:00,60.3,37.0,29.84,West,269,5.0,9.0,43,0.00,,,0.66,weatherlink.com 1.10,2013-02-10 16:16:00,
2013-02-10 09:31:00,60.7,35.0,29.84,WNW,295,5.0,11.0,39,0.00,,,0.66,weatherlink.com 1.10,2013-02-10 16:31:00,
2013-02-10 09:46:00,61.0,37.0,29.84,WNW,294,3.0,12.0,41,0.00,,,0.66,weatherlink.com 1.10,2013-02-10 16:46:00,
2013-02-10 10:02:00,61.2,35.0,29.84,West,263,5.0,11.0,37,0.00,,,0.66,weatherlink.com 1.10,2013-02-10 17:02:00,
2013-02-10 10:16:00,61.2,32.0,29.84,WSW,243,5.0,9.0,34,0.00,,,0.66,weatherlink.com 1.10,2013-02-10 17:16:00,
2013-02-10 10:31:00,61.1,32.0,29.84,West,280,4.0,11.0,34,0.00,,,0.66,weatherlink.com 1.10,2013-02-10 17:31:00,
2013-02-10 10:46:00,61.5,32.0,29.83,SW,229,7.0,10.0,33,0.00,,,0.66,weatherlink.com 1.10,2013-02-10 17:46:00,
2013-02-10 11:01:00,61.9,34.0,29.82,SW,226,10.0,11.0,35,0.00,,,0.66,weatherlink.com 1.10,2013-02-10 18:01:00,
2013-02-10 11:16:00,61.9,34.0,29.82,WNW,284,4.0,11.0,35,0.00,,,0.66,weatherlink.com 1.10,2013-02-10 18:16:00,
2013-02-10 11:31:00,62.3,34.0,29.81,West,264,5.0,12.0,35,0.00,,,0.66,weatherlink.com 1.10,2013-02-10 18:31:00,
2013-02-10 11:46:00,62.5,32.0,29.80,West,278,3.0,12.0,32,0.00,,,0.66,weatherlink.com 1.10,2013-02-10 18:46:00,
2013-02-10 12:01:00,62.9,32.0,29.81,WSW,245,4.0,12.0,31,0.00,,,0.66,weatherlink.com 1.10,2013-02-10 19:01:00,
2013-02-10 12:16:00,63.1,33.0,29.81,West,270,2.0,7.0,32,0.00,,,0.66,weatherlink.com 1.10,2013-02-10 19:16:00,
2013-02-10 12:31:00,64.2,32.0,29.80,West,269,3.0,8.0,30,0.00,,,0.66,weatherlink.com 1.10,2013-02-10 19:31:00,
2013-02-10 12:46:00,64.5,32.0,29.80,WSW,239,6.0,9.0,30,0.00,,,0.66,weatherlink.com 1.10,2013-02-10 19:46:00,
2013-02-10 13:01:00,64.6,30.0,29.79,WSW,250,5.0,8.0,27,0.00,,,0.66,weatherlink.com 1.10,2013-02-10 20:01:00,
2013-02-10 13:16:00,64.5,30.0,29.80,SW,236,3.0,10.0,27,0.00,,,0.66,weatherlink.com 1.10,2013-02-10 20:16:00,
2013-02-10 13:31:00,64.6,30.0,29.80,WSW,249,5.0,9.0,27,0.00,,,0.66,weatherlink.com 1.10,2013-02-10 20:31:00,
2013-02-10 13:46:00,64.4,31.0,29.79,WSW,239,2.0,5.0,29,0.00,,,0.66,weatherlink.com 1.10,2013-02-10 20:46:00,
2013-02-10 14:01:00,64.5,31.0,29.79,WSW,241,1.0,7.0,28,0.00,,,0.66,weatherlink.com 1.10,2013-02-10 21:01:00,
2013-02-10 14:16:00,64.6,30.0,29.80,SW,231,2.0,7.0,27,0.00,,,0.66,weatherlink.com 1.10,2013-02-10 21:16:00,
2013-02-10 14:31:00,64.6,31.0,29.81,SW,232,6.0,7.0,28,0.00,,,0.66,weatherlink.com 1.10,2013-02-10 21:31:00,
2013-02-10 14:46:00,63.9,35.0,29.81,South,177,2.0,5.0,34,0.00,,,0.66,weatherlink.com 1.10,2013-02-10 21:46:00,
2013-02-10 15:01:00,64.1,35.0,29.81,South,185,2.0,7.0,34,0.00,,,0.66,weatherlink.com 1.10,2013-02-10 22:01:00,
2013-02-10 15:16:00,63.5,37.0,29.81,SSW,205,1.0,6.0,38,0.00,,,0.66,weatherlink.com 1.10,2013-02-10 22:16:00,
2013-02-10 15:31:00,63.3,35.0,29.82,SSW,200,2.0,5.0,35,0.00,,,0.66,weatherlink.com 1.10,2013-02-10 22:31:00,
2013-02-10 15:46:00,63.7,37.0,29.82,SW,219,1.0,4.0,38,0.00,,,0.66,weatherlink.com 1.10,2013-02-10 22:46:00,
2013-02-10 16:01:00,64.7,37.0,29.83,SSW,204,2.0,5.0,36,0.00,,,0.66,weatherlink.com 1.10,2013-02-10 23:01:00,
2013-02-10 16:16:00,63.4,36.0,29.83,South,174,2.0,4.0,37,0.00,,,0.66,weatherlink.com 1.10,2013-02-10 23:16:00,
2013-02-10 16:31:00,62.0,36.0,29.84,SSW,204,1.0,3.0,38,0.00,,,0.66,weatherlink.com 1.10,2013-02-10 23:31:00,
2013-02-10 16:46:00,60.9,37.0,29.84,SW,214,0.0,1.0,42,0.00,,,0.66,weatherlink.com 1.10,2013-02-10 23:46:00,
2013-02-10 17:01:00,60.1,37.0,29.84,SSW,200,0.0,1.0,43,0.00,,,0.66,weatherlink.com 1.10,2013-02-11 00:01:00,
2013-02-10 17:16:00,59.6,36.0,29.85,SSW,200,0.0,1.0,42,0.00,,,0.66,weatherlink.com 1.10,2013-02-11 00:16:00,
2013-02-10 17:31:00,58.8,36.0,29.86,South,186,0.0,1.0,42,0.00,,,0.66,weatherlink.com 1.10,2013-02-11 00:31:00,
2013-02-10 17:46:00,58.2,35.0,29.86,South,186,0.0,1.0,42,0.00,,,0.66,weatherlink.com 1.10,2013-02-11 00:46:00,
2013-02-10 18:01:00,57.7,35.0,29.87,SSE,164,0.0,1.0,43,0.00,,,0.66,weatherlink.com 1.10,2013-02-11 01:01:00,
2013-02-10 18:16:00,57.0,36.0,29.88,SSE,164,0.0,1.0,46,0.00,,,0.66,weatherlink.com 1.10,2013-02-11 01:16:00,
2013-02-10 18:31:00,56.5,36.0,29.89,SSE,164,0.0,1.0,47,0.00,,,0.66,weatherlink.com 1.10,2013-02-11 01:31:00,
2013-02-10 18:46:00,55.9,37.0,29.90,SSE,163,0.0,0.0,49,0.00,,,0.66,weatherlink.com 1.10,2013-02-11 01:46:00,
2013-02-10 19:01:00,55.5,37.0,29.91,SSE,164,0.0,0.0,50,0.00,,,0.66,weatherlink.com 1.10,2013-02-11 02:01:00,
2013-02-10 19:16:00,54.9,37.0,29.91,SSE,163,0.0,0.0,51,0.00,,,0.66,weatherlink.com 1.10,2013-02-11 02:16:00,
2013-02-10 19:31:00,55.0,36.0,29.92,SSE,163,0.0,0.0,49,0.00,,,0.66,weatherlink.com 1.10,2013-02-11 02:31:00,
2013-02-10 19:47:00,55.1,36.0,29.93,SSE,164,0.0,0.0,49,0.00,,,0.66,weatherlink.com 1.10,2013-02-11 02:47:00,
2013-02-10 20:02:00,54.9,36.0,29.93,SE,134,0.0,0.0,49,0.00,,,0.66,weatherlink.com 1.10,2013-02-11 03:02:00,
2013-02-10 20:17:00,54.5,35.0,29.93,SE,134,0.0,0.0,49,0.00,,,0.66,weatherlink.com 1.10,2013-02-11 03:17:00,
2013-02-10 20:32:00,54.5,35.0,29.93,SE,134,0.0,0.0,48,0.00,,,0.66,weatherlink.com 1.10,2013-02-11 03:32:00,
2013-02-10 20:47:00,54.0,34.0,29.94,SE,134,0.0,0.0,48,0.00,,,0.66,weatherlink.com 1.10,2013-02-11 03:47:00,
2013-02-10 21:02:00,54.1,35.0,29.94,SE,134,0.0,1.0,48,0.00,,,0.66,weatherlink.com 1.10,2013-02-11 04:02:00,
2013-02-10 21:17:00,53.9,34.0,29.94,ESE,117,0.0,1.0,47,0.00,,,0.66,weatherlink.com 1.10,2013-02-11 04:17:00,
2013-02-10 21:32:00,52.6,35.0,29.94,ESE,117,0.0,2.0,52,0.00,,,0.66,weatherlink.com 1.10,2013-02-11 04:32:00,
2013-02-10 21:47:00,50.4,36.0,29.95,ESE,117,0.0,0.0,58,0.00,,,0.66,weatherlink.com 1.10,2013-02-11 04:47:00,
2013-02-10 22:02:00,49.9,38.0,29.96,ESE,117,0.0,0.0,64,0.00,,,0.66,weatherlink.com 1.10,2013-02-11 05:02:00,
2013-02-10 22:17:00,50.4,35.0,29.96,ESE,117,0.0,0.0,57,0.00,,,0.66,weatherlink.com 1.10,2013-02-11 05:17:00,
2013-02-10 22:32:00,50.5,39.0,29.97,ESE,117,0.0,0.0,65,0.00,,,0.66,weatherlink.com 1.10,2013-02-11 05:32:00,
2013-02-10 22:47:00,50.0,38.0,29.97,ESE,117,0.0,0.0,64,0.00,,,0.66,weatherlink.com 1.10,2013-02-11 05:47:00,
2013-02-10 23:02:00,50.5,41.0,29.98,ESE,117,0.0,0.0,70,0.00,,,0.66,weatherlink.com 1.10,2013-02-11 06:02:00,
2013-02-10 23:17:00,49.9,38.0,29.97,North,352,0.0,2.0,63,0.00,,,0.00,weatherlink.com 1.10,2013-02-11 06:17:00,
2013-02-10 23:32:00,51.0,39.0,29.97,NW,316,0.0,7.0,64,0.00,,,0.00,weatherlink.com 1.10,2013-02-11 06:32:00,
2013-02-10 23:47:00,50.6,39.0,29.97,NW,318,3.0,6.0,65,0.00,,,0.00,weatherlink.com 1.10,2013-02-11 06:47:00,